sensor_id;sensor_type;location;lat;lon;timestamp;temperature;humidity
12811;DHT22;6470;47.654;7.896;2023-10-08T00:00:47;9.60;99.90
12811;DHT22;6470;47.654;7.896;2023-10-08T00:03:19;9.00;99.90
12811;DHT22;6470;47.654;7.896;2023-10-08T00:05:46;9.90;99.90
12811;DHT22;6470;47.654;7.896;2023-10-08T00:08:12;9.50;99.90
12811;DHT22;6470;47.654;7.896;2023-10-08T00:13:09;9.80;99.90
12811;DHT22;6470;47.654;7.896;2023-10-08T00:15:39;9.40;99.90
12811;DHT22;6470;47.654;7.896;2023-10-08T00:20:42;9.60;99.90
12811;DHT22;6470;47.654;7.896;2023-10-08T00:23:13;9.50;99.90
12811;DHT22;6470;47.654;7.896;2023-10-08T00:25:40;9.50;99.90
12811;DHT22;6470;47.654;7.896;2023-10-08T00:28:09;9.30;99.90
12811;DHT22;6470;47.654;7.896;2023-10-08T00:30:41;9.20;99.90
12811;DHT22;6470;47.654;7.896;2023-10-08T00:33:08;8.80;99.90
12811;DHT22;6470;47.654;7.896;2023-10-08T00:35:38;9.10;99.90
12811;DHT22;6470;47.654;7.896;2023-10-08T00:38:05;9.10;99.90
12811;DHT22;6470;47.654;7.896;2023-10-08T00:40:37;7.00;99.90
12811;DHT22;6470;47.654;7.896;2023-10-08T00:43:04;8.90;99.90
12811;DHT22;6470;47.654;7.896;2023-10-08T00:45:36;8.80;99.90
12811;DHT22;6470;47.654;7.896;2023-10-08T00:50:28;9.30;99.90
12811;DHT22;6470;47.654;7.896;2023-10-08T00:55:42;9.00;99.90
12811;DHT22;6470;47.654;7.896;2023-10-08T00:58:15;8.90;99.90
12811;DHT22;6470;47.654;7.896;2023-10-08T01:00:51;8.90;99.90
12811;DHT22;6470;47.654;7.896;2023-10-08T01:03:22;8.30;99.90
12811;DHT22;6470;47.654;7.896;2023-10-08T01:05:48;8.60;99.90
12811;DHT22;6470;47.654;7.896;2023-10-08T01:08:14;8.70;99.90
12811;DHT22;6470;47.654;7.896;2023-10-08T01:13:45;8.50;99.90
12811;DHT22;6470;47.654;7.896;2023-10-08T01:16:12;8.50;99.90
12811;DHT22;6470;47.654;7.896;2023-10-08T01:21:15;9.30;99.90
12811;DHT22;6470;47.654;7.896;2023-10-08T01:26:25;8.20;99.90
12811;DHT22;6470;47.654;7.896;2023-10-08T01:31:20;8.90;99.90
12811;DHT22;6470;47.654;7.896;2023-10-08T01:33:46;9.00;99.90
12811;DHT22;6470;47.654;7.896;2023-10-08T01:36:23;9.10;99.90
12811;DHT22;6470;47.654;7.896;2023-10-08T01:38:49;8.80;99.90
12811;DHT22;6470;47.654;7.896;2023-10-08T01:41:15;8.70;99.90
12811;DHT22;6470;47.654;7.896;2023-10-08T01:43:56;8.20;99.90
12811;DHT22;6470;47.654;7.896;2023-10-08T01:46:24;8.90;99.90
12811;DHT22;6470;47.654;7.896;2023-10-08T01:48:52;7.00;99.90
12811;DHT22;6470;47.654;7.896;2023-10-08T01:54:12;8.10;99.90
12811;DHT22;6470;47.654;7.896;2023-10-08T01:56:43;8.40;99.90
12811;DHT22;6470;47.654;7.896;2023-10-08T01:59:12;8.80;99.90
12811;DHT22;6470;47.654;7.896;2023-10-08T02:01:40;8.40;99.90
12811;DHT22;6470;47.654;7.896;2023-10-08T02:04:06;8.70;99.90
12811;DHT22;6470;47.654;7.896;2023-10-08T02:06:37;8.80;99.90
12811;DHT22;6470;47.654;7.896;2023-10-08T02:09:05;8.40;99.90
12811;DHT22;6470;47.654;7.896;2023-10-08T02:11:44;8.20;99.90
12811;DHT22;6470;47.654;7.896;2023-10-08T02:14:10;8.60;99.90
12811;DHT22;6470;47.654;7.896;2023-10-08T02:19:03;8.40;99.90
12811;DHT22;6470;47.654;7.896;2023-10-08T02:21:29;8.50;99.90
12811;DHT22;6470;47.654;7.896;2023-10-08T02:23:54;7.00;99.90
12811;DHT22;6470;47.654;7.896;2023-10-08T02:26:20;8.60;99.90
12811;DHT22;6470;47.654;7.896;2023-10-08T02:28:46;8.60;99.90
12811;DHT22;6470;47.654;7.896;2023-10-08T02:31:11;8.90;99.90
12811;DHT22;6470;47.654;7.896;2023-10-08T02:33:37;8.40;99.90
12811;DHT22;6470;47.654;7.896;2023-10-08T02:38:30;7.30;99.90
12811;DHT22;6470;47.654;7.896;2023-10-08T02:41:03;8.50;99.90
12811;DHT22;6470;47.654;7.896;2023-10-08T02:43:32;7.00;99.90
12811;DHT22;6470;47.654;7.896;2023-10-08T02:46:00;8.40;99.90
12811;DHT22;6470;47.654;7.896;2023-10-08T02:48:26;8.70;99.90
12811;DHT22;6470;47.654;7.896;2023-10-08T02:50:52;8.80;99.90
12811;DHT22;6470;47.654;7.896;2023-10-08T02:53:20;8.10;99.90
12811;DHT22;6470;47.654;7.896;2023-10-08T02:58:17;8.40;99.90
12811;DHT22;6470;47.654;7.896;2023-10-08T03:00:47;8.30;99.90
12811;DHT22;6470;47.654;7.896;2023-10-08T03:03:14;8.40;99.90
12811;DHT22;6470;47.654;7.896;2023-10-08T03:05:53;8.10;99.90
12811;DHT22;6470;47.654;7.896;2023-10-08T03:08:22;8.90;99.90
12811;DHT22;6470;47.654;7.896;2023-10-08T03:10:49;8.30;99.90
12811;DHT22;6470;47.654;7.896;2023-10-08T03:13:21;8.70;99.90
12811;DHT22;6470;47.654;7.896;2023-10-08T03:15:47;8.40;99.90
12811;DHT22;6470;47.654;7.896;2023-10-08T03:18:34;8.90;99.90
12811;DHT22;6470;47.654;7.896;2023-10-08T03:21:07;7.00;99.90
12811;DHT22;6470;47.654;7.896;2023-10-08T03:23:46;8.30;99.90
12811;DHT22;6470;47.654;7.896;2023-10-08T03:26:13;5.40;99.90
12811;DHT22;6470;47.654;7.896;2023-10-08T03:28:54;7.60;99.90
12811;DHT22;6470;47.654;7.896;2023-10-08T03:31:23;7.70;99.90
12811;DHT22;6470;47.654;7.896;2023-10-08T03:34:15;8.50;99.90
12811;DHT22;6470;47.654;7.896;2023-10-08T03:36:44;8.30;99.90
12811;DHT22;6470;47.654;7.896;2023-10-08T03:39:13;8.70;99.90
12811;DHT22;6470;47.654;7.896;2023-10-08T03:41:40;8.40;99.90
12811;DHT22;6470;47.654;7.896;2023-10-08T03:44:07;8.00;99.90
12811;DHT22;6470;47.654;7.896;2023-10-08T03:46:40;7.60;99.90
12811;DHT22;6470;47.654;7.896;2023-10-08T03:49:15;8.10;99.90
12811;DHT22;6470;47.654;7.896;2023-10-08T03:51:53;7.80;99.90
12811;DHT22;6470;47.654;7.896;2023-10-08T03:54:22;8.20;99.90
12811;DHT22;6470;47.654;7.896;2023-10-08T03:57:00;7.50;99.90
12811;DHT22;6470;47.654;7.896;2023-10-08T03:59:27;6.90;99.90
12811;DHT22;6470;47.654;7.896;2023-10-08T04:02:03;7.90;99.90
12811;DHT22;6470;47.654;7.896;2023-10-08T04:04:48;7.90;99.90
12811;DHT22;6470;47.654;7.896;2023-10-08T04:07:19;7.30;99.90
12811;DHT22;6470;47.654;7.896;2023-10-08T04:09:54;8.00;99.90
12811;DHT22;6470;47.654;7.896;2023-10-08T04:12:36;7.60;99.90
12811;DHT22;6470;47.654;7.896;2023-10-08T04:15:07;8.50;99.90
12811;DHT22;6470;47.654;7.896;2023-10-08T04:17:36;8.10;99.90
12811;DHT22;6470;47.654;7.896;2023-10-08T04:20:14;5.00;99.90
12811;DHT22;6470;47.654;7.896;2023-10-08T04:23:03;7.80;99.90
12811;DHT22;6470;47.654;7.896;2023-10-08T04:25:31;7.70;99.90
12811;DHT22;6470;47.654;7.896;2023-10-08T04:27:59;7.90;99.90
12811;DHT22;6470;47.654;7.896;2023-10-08T04:30:43;8.60;99.90
12811;DHT22;6470;47.654;7.896;2023-10-08T04:33:10;8.20;99.90
12811;DHT22;6470;47.654;7.896;2023-10-08T04:35:41;8.00;99.90
12811;DHT22;6470;47.654;7.896;2023-10-08T04:40:54;8.50;99.90
12811;DHT22;6470;47.654;7.896;2023-10-08T04:43:22;8.60;99.90
12811;DHT22;6470;47.654;7.896;2023-10-08T04:45:57;8.00;99.90
12811;DHT22;6470;47.654;7.896;2023-10-08T04:48:25;8.20;99.90
12811;DHT22;6470;47.654;7.896;2023-10-08T04:53:28;7.90;99.90
12811;DHT22;6470;47.654;7.896;2023-10-08T04:56:01;7.60;99.90
12811;DHT22;6470;47.654;7.896;2023-10-08T04:58:43;7.90;99.90
12811;DHT22;6470;47.654;7.896;2023-10-08T05:01:13;7.70;99.90
12811;DHT22;6470;47.654;7.896;2023-10-08T05:03:49;8.00;99.90
12811;DHT22;6470;47.654;7.896;2023-10-08T05:06:24;7.80;99.90
12811;DHT22;6470;47.654;7.896;2023-10-08T05:09:06;8.10;99.90
12811;DHT22;6470;47.654;7.896;2023-10-08T05:11:44;7.80;99.90
12811;DHT22;6470;47.654;7.896;2023-10-08T05:14:17;7.40;99.90
12811;DHT22;6470;47.654;7.896;2023-10-08T05:17:02;5.10;99.90
12811;DHT22;6470;47.654;7.896;2023-10-08T05:19:37;8.00;99.90
12811;DHT22;6470;47.654;7.896;2023-10-08T05:22:08;7.50;99.90
12811;DHT22;6470;47.654;7.896;2023-10-08T05:24:49;7.30;99.90
12811;DHT22;6470;47.654;7.896;2023-10-08T05:27:35;7.80;99.90
12811;DHT22;6470;47.654;7.896;2023-10-08T05:30:17;7.30;99.90
12811;DHT22;6470;47.654;7.896;2023-10-08T05:32:55;7.90;99.90
12811;DHT22;6470;47.654;7.896;2023-10-08T05:35:40;7.30;99.90
12811;DHT22;6470;47.654;7.896;2023-10-08T05:38:10;7.60;99.90
12811;DHT22;6470;47.654;7.896;2023-10-08T05:40:44;7.60;99.90
12811;DHT22;6470;47.654;7.896;2023-10-08T05:43:35;7.70;99.90
12811;DHT22;6470;47.654;7.896;2023-10-08T05:46:08;7.50;99.90
12811;DHT22;6470;47.654;7.896;2023-10-08T05:48:47;7.60;99.90
12811;DHT22;6470;47.654;7.896;2023-10-08T05:51:27;7.80;99.90
12811;DHT22;6470;47.654;7.896;2023-10-08T05:54:38;7.90;99.90
12811;DHT22;6470;47.654;7.896;2023-10-08T05:57:23;7.70;99.90
12811;DHT22;6470;47.654;7.896;2023-10-08T06:00:05;7.20;99.90
12811;DHT22;6470;47.654;7.896;2023-10-08T06:02:32;7.90;99.90
12811;DHT22;6470;47.654;7.896;2023-10-08T06:04:59;7.70;99.90
12811;DHT22;6470;47.654;7.896;2023-10-08T06:07:53;8.40;99.90
12811;DHT22;6470;47.654;7.896;2023-10-08T06:10:26;8.10;99.90
12811;DHT22;6470;47.654;7.896;2023-10-08T06:13:02;8.20;99.90
12811;DHT22;6470;47.654;7.896;2023-10-08T06:15:49;8.10;99.90
12811;DHT22;6470;47.654;7.896;2023-10-08T06:18:27;8.50;99.90
12811;DHT22;6470;47.654;7.896;2023-10-08T06:20:54;7.70;99.90
12811;DHT22;6470;47.654;7.896;2023-10-08T06:23:21;8.70;99.90
12811;DHT22;6470;47.654;7.896;2023-10-08T06:25:49;9.10;99.90
12811;DHT22;6470;47.654;7.896;2023-10-08T06:28:22;8.40;99.90
12811;DHT22;6470;47.654;7.896;2023-10-08T06:30:54;8.80;99.90
12811;DHT22;6470;47.654;7.896;2023-10-08T06:33:22;9.40;99.90
12811;DHT22;6470;47.654;7.896;2023-10-08T06:35:48;9.30;99.90
12811;DHT22;6470;47.654;7.896;2023-10-08T06:38:33;9.80;99.90
12811;DHT22;6470;47.654;7.896;2023-10-08T06:41:00;9.50;99.90
12811;DHT22;6470;47.654;7.896;2023-10-08T06:43:26;9.10;99.90
12811;DHT22;6470;47.654;7.896;2023-10-08T06:48:22;9.70;99.90
12811;DHT22;6470;47.654;7.896;2023-10-08T06:50:52;9.60;99.90
12811;DHT22;6470;47.654;7.896;2023-10-08T06:53:23;12.40;99.90
12811;DHT22;6470;47.654;7.896;2023-10-08T06:55:49;11.70;99.90
12811;DHT22;6470;47.654;7.896;2023-10-08T07:00:48;12.10;99.90
12811;DHT22;6470;47.654;7.896;2023-10-08T07:03:16;12.60;99.90
12811;DHT22;6470;47.654;7.896;2023-10-08T07:05:47;11.90;99.90
12811;DHT22;6470;47.654;7.896;2023-10-08T07:08:31;15.20;99.90
12811;DHT22;6470;47.654;7.896;2023-10-08T07:13:25;15.30;99.90
12811;DHT22;6470;47.654;7.896;2023-10-08T07:15:52;15.60;99.90
12811;DHT22;6470;47.654;7.896;2023-10-08T07:18:18;15.70;99.90
12811;DHT22;6470;47.654;7.896;2023-10-08T07:21:02;10.10;99.90
12811;DHT22;6470;47.654;7.896;2023-10-08T07:23:38;15.20;99.90
12811;DHT22;6470;47.654;7.896;2023-10-08T07:26:28;15.30;99.90
12811;DHT22;6470;47.654;7.896;2023-10-08T07:29:06;13.60;99.90
12811;DHT22;6470;47.654;7.896;2023-10-08T07:31:36;13.80;99.90
12811;DHT22;6470;47.654;7.896;2023-10-08T07:34:03;11.10;99.90
12811;DHT22;6470;47.654;7.896;2023-10-08T07:36:50;14.30;99.90
12811;DHT22;6470;47.654;7.896;2023-10-08T07:39:18;15.50;99.90
12811;DHT22;6470;47.654;7.896;2023-10-08T07:41:54;14.30;99.90
12811;DHT22;6470;47.654;7.896;2023-10-08T07:44:21;14.70;99.90
12811;DHT22;6470;47.654;7.896;2023-10-08T07:46:51;15.80;99.90
12811;DHT22;6470;47.654;7.896;2023-10-08T07:49:17;15.10;99.90
12811;DHT22;6470;47.654;7.896;2023-10-08T07:51:43;15.30;99.90
12811;DHT22;6470;47.654;7.896;2023-10-08T07:54:26;15.50;99.90
12811;DHT22;6470;47.654;7.896;2023-10-08T07:56:55;15.70;99.90
12811;DHT22;6470;47.654;7.896;2023-10-08T07:59:34;16.00;99.90
12811;DHT22;6470;47.654;7.896;2023-10-08T08:02:09;16.50;99.90
12811;DHT22;6470;47.654;7.896;2023-10-08T08:04:42;13.90;99.90
12811;DHT22;6470;47.654;7.896;2023-10-08T08:07:16;16.70;99.90
12811;DHT22;6470;47.654;7.896;2023-10-08T08:09:43;16.80;99.90
12811;DHT22;6470;47.654;7.896;2023-10-08T08:12:19;16.70;99.90
12811;DHT22;6470;47.654;7.896;2023-10-08T08:14:47;16.50;99.90
12811;DHT22;6470;47.654;7.896;2023-10-08T08:17:14;17.00;99.90
12811;DHT22;6470;47.654;7.896;2023-10-08T08:19:44;16.90;99.90
12811;DHT22;6470;47.654;7.896;2023-10-08T08:22:10;17.10;99.90
12811;DHT22;6470;47.654;7.896;2023-10-08T08:24:41;17.00;99.90
12811;DHT22;6470;47.654;7.896;2023-10-08T08:27:11;16.60;99.90
12811;DHT22;6470;47.654;7.896;2023-10-08T08:29:52;16.60;99.90
12811;DHT22;6470;47.654;7.896;2023-10-08T08:32:22;16.70;99.90
12811;DHT22;6470;47.654;7.896;2023-10-08T08:34:49;17.10;99.90
12811;DHT22;6470;47.654;7.896;2023-10-08T08:37:18;16.50;99.90
12811;DHT22;6470;47.654;7.896;2023-10-08T08:39:43;17.40;99.90
12811;DHT22;6470;47.654;7.896;2023-10-08T08:42:11;17.70;99.90
12811;DHT22;6470;47.654;7.896;2023-10-08T08:44:38;17.90;99.90
12811;DHT22;6470;47.654;7.896;2023-10-08T08:47:15;18.70;99.90
12811;DHT22;6470;47.654;7.896;2023-10-08T08:49:44;18.10;99.90
12811;DHT22;6470;47.654;7.896;2023-10-08T08:52:13;18.20;99.90
12811;DHT22;6470;47.654;7.896;2023-10-08T08:54:42;17.50;99.90
12811;DHT22;6470;47.654;7.896;2023-10-08T08:57:10;15.30;99.90
12811;DHT22;6470;47.654;7.896;2023-10-08T08:59:52;18.50;99.90
12811;DHT22;6470;47.654;7.896;2023-10-08T09:02:18;18.80;99.90
12811;DHT22;6470;47.654;7.896;2023-10-08T09:04:44;16.00;99.90
12811;DHT22;6470;47.654;7.896;2023-10-08T09:07:12;19.50;99.90
12811;DHT22;6470;47.654;7.896;2023-10-08T09:09:37;19.20;99.90
12811;DHT22;6470;47.654;7.896;2023-10-08T09:12:05;20.10;99.90
12811;DHT22;6470;47.654;7.896;2023-10-08T09:14:31;19.30;99.90
12811;DHT22;6470;47.654;7.896;2023-10-08T09:16:58;19.70;99.90
12811;DHT22;6470;47.654;7.896;2023-10-08T09:19:25;19.70;99.90
12811;DHT22;6470;47.654;7.896;2023-10-08T09:22:08;19.60;99.90
12811;DHT22;6470;47.654;7.896;2023-10-08T09:24:36;19.10;99.90
12811;DHT22;6470;47.654;7.896;2023-10-08T09:27:06;19.90;99.90
12811;DHT22;6470;47.654;7.896;2023-10-08T09:29:33;20.40;99.90
12811;DHT22;6470;47.654;7.896;2023-10-08T09:32:04;19.90;99.90
12811;DHT22;6470;47.654;7.896;2023-10-08T09:34:31;20.30;99.90
12811;DHT22;6470;47.654;7.896;2023-10-08T09:36:59;21.00;99.90
12811;DHT22;6470;47.654;7.896;2023-10-08T09:39:29;20.70;99.90
12811;DHT22;6470;47.654;7.896;2023-10-08T09:42:00;21.60;99.90
12811;DHT22;6470;47.654;7.896;2023-10-08T09:44:28;21.00;99.90
12811;DHT22;6470;47.654;7.896;2023-10-08T09:52:06;20.80;99.90
12811;DHT22;6470;47.654;7.896;2023-10-08T09:57:06;21.70;99.90
12811;DHT22;6470;47.654;7.896;2023-10-08T09:59:34;21.80;99.90
12811;DHT22;6470;47.654;7.896;2023-10-08T10:02:00;22.30;99.90
12811;DHT22;6470;47.654;7.896;2023-10-08T10:04:30;22.30;99.90
12811;DHT22;6470;47.654;7.896;2023-10-08T10:06:58;22.60;99.90
12811;DHT22;6470;47.654;7.896;2023-10-08T10:09:25;22.90;99.90
12811;DHT22;6470;47.654;7.896;2023-10-08T10:11:53;22.20;99.90
12811;DHT22;6470;47.654;7.896;2023-10-08T10:14:22;19.60;99.90
12811;DHT22;6470;47.654;7.896;2023-10-08T10:17:26;22.90;99.90
12811;DHT22;6470;47.654;7.896;2023-10-08T10:19:55;22.30;99.90
12811;DHT22;6470;47.654;7.896;2023-10-08T10:24:54;23.50;99.90
12811;DHT22;6470;47.654;7.896;2023-10-08T10:27:20;24.20;99.90
12811;DHT22;6470;47.654;7.896;2023-10-08T10:29:47;22.80;99.90
12811;DHT22;6470;47.654;7.896;2023-10-08T10:32:14;24.00;99.90
12811;DHT22;6470;47.654;7.896;2023-10-08T10:34:42;23.60;99.90
12811;DHT22;6470;47.654;7.896;2023-10-08T10:37:08;24.30;99.90
12811;DHT22;6470;47.654;7.896;2023-10-08T10:39:35;24.50;99.90
12811;DHT22;6470;47.654;7.896;2023-10-08T10:42:06;23.70;99.90
12811;DHT22;6470;47.654;7.896;2023-10-08T10:44:44;23.80;99.90
12811;DHT22;6470;47.654;7.896;2023-10-08T10:47:10;23.90;99.90
12811;DHT22;6470;47.654;7.896;2023-10-08T10:49:42;24.20;99.90
12811;DHT22;6470;47.654;7.896;2023-10-08T10:52:15;24.60;99.90
12811;DHT22;6470;47.654;7.896;2023-10-08T10:54:52;24.70;99.90
12811;DHT22;6470;47.654;7.896;2023-10-08T10:57:26;25.10;99.90
12811;DHT22;6470;47.654;7.896;2023-10-08T11:00:04;25.10;99.90
12811;DHT22;6470;47.654;7.896;2023-10-08T11:02:50;25.40;99.90
12811;DHT22;6470;47.654;7.896;2023-10-08T11:05:16;26.40;99.90
12811;DHT22;6470;47.654;7.896;2023-10-08T11:07:47;26.50;99.90
12811;DHT22;6470;47.654;7.896;2023-10-08T11:10:14;25.60;99.90
12811;DHT22;6470;47.654;7.896;2023-10-08T11:12:42;26.50;99.90
12811;DHT22;6470;47.654;7.896;2023-10-08T11:15:18;26.00;99.90
12811;DHT22;6470;47.654;7.896;2023-10-08T11:17:45;25.80;99.90
12811;DHT22;6470;47.654;7.896;2023-10-08T11:20:43;26.30;99.90
12811;DHT22;6470;47.654;7.896;2023-10-08T11:23:37;25.60;99.90
12811;DHT22;6470;47.654;7.896;2023-10-08T11:26:04;25.80;99.90
12811;DHT22;6470;47.654;7.896;2023-10-08T11:28:40;26.00;98.90
12811;DHT22;6470;47.654;7.896;2023-10-08T11:31:15;25.70;99.10
12811;DHT22;6470;47.654;7.896;2023-10-08T11:33:45;25.80;99.30
12811;DHT22;6470;47.654;7.896;2023-10-08T11:36:21;26.10;99.20
12811;DHT22;6470;47.654;7.896;2023-10-08T11:39:10;25.60;98.90
12811;DHT22;6470;47.654;7.896;2023-10-08T11:41:36;25.50;99.90
12811;DHT22;6470;47.654;7.896;2023-10-08T11:44:16;25.00;99.90
12811;DHT22;6470;47.654;7.896;2023-10-08T11:46:46;26.10;99.90
12811;DHT22;6470;47.654;7.896;2023-10-08T11:49:17;25.80;99.90
12811;DHT22;6470;47.654;7.896;2023-10-08T11:51:44;26.10;99.90
12811;DHT22;6470;47.654;7.896;2023-10-08T11:54:11;25.80;99.90
12811;DHT22;6470;47.654;7.896;2023-10-08T11:56:40;25.70;99.90
12811;DHT22;6470;47.654;7.896;2023-10-08T11:59:06;26.30;99.90
12811;DHT22;6470;47.654;7.896;2023-10-08T12:21:28;24.90;95.80
12811;DHT22;6470;47.654;7.896;2023-10-08T12:23:56;27.70;98.10
12811;DHT22;6470;47.654;7.896;2023-10-08T12:26:22;28.60;98.20
12811;DHT22;6470;47.654;7.896;2023-10-08T12:28:48;28.50;97.20
12811;DHT22;6470;47.654;7.896;2023-10-08T12:31:18;24.80;95.70
12811;DHT22;6470;47.654;7.896;2023-10-08T12:33:48;27.90;97.50
12811;DHT22;6470;47.654;7.896;2023-10-08T12:36:14;27.40;96.40
12811;DHT22;6470;47.654;7.896;2023-10-08T12:38:43;27.90;96.50
12811;DHT22;6470;47.654;7.896;2023-10-08T12:41:12;27.90;96.20
12811;DHT22;6470;47.654;7.896;2023-10-08T12:43:42;28.10;96.20
12811;DHT22;6470;47.654;7.896;2023-10-08T12:46:11;28.60;97.00
12811;DHT22;6470;47.654;7.896;2023-10-08T12:48:46;28.10;95.60
12811;DHT22;6470;47.654;7.896;2023-10-08T12:51:21;28.00;96.10
12811;DHT22;6470;47.654;7.896;2023-10-08T12:53:51;27.80;96.50
12811;DHT22;6470;47.654;7.896;2023-10-08T12:56:25;27.80;96.20
12811;DHT22;6470;47.654;7.896;2023-10-08T12:58:58;27.80;96.00
12811;DHT22;6470;47.654;7.896;2023-10-08T13:01:24;28.40;96.10
12811;DHT22;6470;47.654;7.896;2023-10-08T13:03:54;28.40;96.70
12811;DHT22;6470;47.654;7.896;2023-10-08T13:06:25;28.10;95.80
12811;DHT22;6470;47.654;7.896;2023-10-08T13:08:58;28.90;96.10
12811;DHT22;6470;47.654;7.896;2023-10-08T13:11:26;27.80;95.40
12811;DHT22;6470;47.654;7.896;2023-10-08T13:13:56;28.90;96.60
12811;DHT22;6470;47.654;7.896;2023-10-08T13:16:26;28.80;95.60
12811;DHT22;6470;47.654;7.896;2023-10-08T13:18:56;27.50;95.50
12811;DHT22;6470;47.654;7.896;2023-10-08T13:21:24;25.50;95.30
12811;DHT22;6470;47.654;7.896;2023-10-08T13:23:53;28.90;96.50
12811;DHT22;6470;47.654;7.896;2023-10-08T13:26:19;28.00;94.90
12811;DHT22;6470;47.654;7.896;2023-10-08T13:28:48;28.30;95.30
12811;DHT22;6470;47.654;7.896;2023-10-08T13:31:14;27.30;96.40
12811;DHT22;6470;47.654;7.896;2023-10-08T13:33:42;28.60;96.80
12811;DHT22;6470;47.654;7.896;2023-10-08T13:36:12;28.70;96.40
12811;DHT22;6470;47.654;7.896;2023-10-08T13:38:40;28.50;95.40
12811;DHT22;6470;47.654;7.896;2023-10-08T13:41:10;28.40;94.60
12811;DHT22;6470;47.654;7.896;2023-10-08T13:43:44;25.40;93.20
12811;DHT22;6470;47.654;7.896;2023-10-08T13:46:12;28.40;95.00
12811;DHT22;6470;47.654;7.896;2023-10-08T13:48:44;27.90;94.70
12811;DHT22;6470;47.654;7.896;2023-10-08T13:51:22;29.00;95.80
12811;DHT22;6470;47.654;7.896;2023-10-08T13:53:57;25.80;93.20
12811;DHT22;6470;47.654;7.896;2023-10-08T13:56:29;28.20;94.60
12811;DHT22;6470;47.654;7.896;2023-10-08T13:58:59;28.80;94.50
12811;DHT22;6470;47.654;7.896;2023-10-08T14:01:38;28.70;94.30
12811;DHT22;6470;47.654;7.896;2023-10-08T14:04:06;28.50;94.90
12811;DHT22;6470;47.654;7.896;2023-10-08T14:06:34;28.40;94.70
12811;DHT22;6470;47.654;7.896;2023-10-08T14:09:01;28.60;95.30
12811;DHT22;6470;47.654;7.896;2023-10-08T14:11:32;28.10;94.60
12811;DHT22;6470;47.654;7.896;2023-10-08T14:13:59;28.70;95.60
12811;DHT22;6470;47.654;7.896;2023-10-08T14:16:36;28.30;94.30
12811;DHT22;6470;47.654;7.896;2023-10-08T14:19:02;28.10;93.40
12811;DHT22;6470;47.654;7.896;2023-10-08T14:21:30;28.10;93.90
12811;DHT22;6470;47.654;7.896;2023-10-08T14:23:56;28.50;93.00
12811;DHT22;6470;47.654;7.896;2023-10-08T14:26:29;28.60;94.00
12811;DHT22;6470;47.654;7.896;2023-10-08T14:29:02;28.60;93.60
12811;DHT22;6470;47.654;7.896;2023-10-08T14:31:36;27.80;93.20
12811;DHT22;6470;47.654;7.896;2023-10-08T14:34:05;27.80;93.40
12811;DHT22;6470;47.654;7.896;2023-10-08T14:36:33;28.00;93.40
12811;DHT22;6470;47.654;7.896;2023-10-08T14:39:18;28.00;94.10
12811;DHT22;6470;47.654;7.896;2023-10-08T14:42:03;27.80;94.00
12811;DHT22;6470;47.654;7.896;2023-10-08T14:44:47;28.10;93.70
12811;DHT22;6470;47.654;7.896;2023-10-08T14:47:16;28.80;93.90
12811;DHT22;6470;47.654;7.896;2023-10-08T14:49:42;25.30;92.30
12811;DHT22;6470;47.654;7.896;2023-10-08T14:52:11;28.70;94.20
12811;DHT22;6470;47.654;7.896;2023-10-08T14:54:37;28.10;93.40
12811;DHT22;6470;47.654;7.896;2023-10-08T14:57:03;28.50;93.70
12811;DHT22;6470;47.654;7.896;2023-10-08T14:59:31;27.70;93.00
12811;DHT22;6470;47.654;7.896;2023-10-08T15:04:24;26.80;93.30
12811;DHT22;6470;47.654;7.896;2023-10-08T15:06:52;26.80;93.00
12811;DHT22;6470;47.654;7.896;2023-10-08T15:09:17;27.30;94.00
12811;DHT22;6470;47.654;7.896;2023-10-08T15:11:52;28.00;94.00
12811;DHT22;6470;47.654;7.896;2023-10-08T15:14:22;26.80;94.00
12811;DHT22;6470;47.654;7.896;2023-10-08T15:16:50;27.20;95.90
12811;DHT22;6470;47.654;7.896;2023-10-08T15:19:21;26.90;95.60
12811;DHT22;6470;47.654;7.896;2023-10-08T15:21:48;26.90;96.30
12811;DHT22;6470;47.654;7.896;2023-10-08T15:24:20;26.30;95.60
12811;DHT22;6470;47.654;7.896;2023-10-08T15:26:50;26.60;95.70
12811;DHT22;6470;47.654;7.896;2023-10-08T15:29:21;26.30;95.70
12811;DHT22;6470;47.654;7.896;2023-10-08T15:31:48;23.90;96.70
12811;DHT22;6470;47.654;7.896;2023-10-08T15:34:15;26.00;98.40
12811;DHT22;6470;47.654;7.896;2023-10-08T15:36:41;26.20;99.50
12811;DHT22;6470;47.654;7.896;2023-10-08T15:39:08;26.20;99.90
12811;DHT22;6470;47.654;7.896;2023-10-08T15:41:51;26.90;99.90
12811;DHT22;6470;47.654;7.896;2023-10-08T15:44:17;26.30;99.90
12811;DHT22;6470;47.654;7.896;2023-10-08T15:46:44;25.60;99.90
12811;DHT22;6470;47.654;7.896;2023-10-08T15:49:10;25.90;99.90
12811;DHT22;6470;47.654;7.896;2023-10-08T15:54:03;25.10;99.90
12811;DHT22;6470;47.654;7.896;2023-10-08T15:56:29;25.10;99.90
12811;DHT22;6470;47.654;7.896;2023-10-08T15:58:55;24.10;99.90
12811;DHT22;6470;47.654;7.896;2023-10-08T16:01:22;23.00;99.90
12811;DHT22;6470;47.654;7.896;2023-10-08T16:03:48;22.60;99.90
12811;DHT22;6470;47.654;7.896;2023-10-08T16:06:16;22.90;99.90
12811;DHT22;6470;47.654;7.896;2023-10-08T16:08:42;23.30;99.90
12811;DHT22;6470;47.654;7.896;2023-10-08T16:13:34;22.70;99.90
12811;DHT22;6470;47.654;7.896;2023-10-08T16:18:25;22.90;99.90
12811;DHT22;6470;47.654;7.896;2023-10-08T16:20:51;19.90;99.90
12811;DHT22;6470;47.654;7.896;2023-10-08T16:25:45;22.70;99.90
12811;DHT22;6470;47.654;7.896;2023-10-08T16:28:14;22.40;99.90
12811;DHT22;6470;47.654;7.896;2023-10-08T16:30:43;21.70;99.90
12811;DHT22;6470;47.654;7.896;2023-10-08T16:33:10;22.20;99.90
12811;DHT22;6470;47.654;7.896;2023-10-08T16:38:03;21.10;99.90
12811;DHT22;6470;47.654;7.896;2023-10-08T16:40:30;18.40;99.90
12811;DHT22;6470;47.654;7.896;2023-10-08T16:42:57;22.00;99.90
12811;DHT22;6470;47.654;7.896;2023-10-08T16:47:49;21.10;99.90
12811;DHT22;6470;47.654;7.896;2023-10-08T16:50:18;21.50;99.90
12811;DHT22;6470;47.654;7.896;2023-10-08T16:52:44;20.70;99.90
12811;DHT22;6470;47.654;7.896;2023-10-08T16:55:11;20.70;99.90
12811;DHT22;6470;47.654;7.896;2023-10-08T16:57:39;20.60;99.90
12811;DHT22;6470;47.654;7.896;2023-10-08T17:00:05;20.00;99.90
12811;DHT22;6470;47.654;7.896;2023-10-08T17:05:02;19.60;99.90
12811;DHT22;6470;47.654;7.896;2023-10-08T17:07:30;18.70;99.90
12811;DHT22;6470;47.654;7.896;2023-10-08T17:09:55;19.50;99.90
12811;DHT22;6470;47.654;7.896;2023-10-08T17:14:47;18.80;99.90
12811;DHT22;6470;47.654;7.896;2023-10-08T17:17:14;19.10;99.90
12811;DHT22;6470;47.654;7.896;2023-10-08T17:22:07;15.40;99.90
12811;DHT22;6470;47.654;7.896;2023-10-08T17:26:59;18.40;99.90
12811;DHT22;6470;47.654;7.896;2023-10-08T17:29:25;18.50;99.90
12811;DHT22;6470;47.654;7.896;2023-10-08T17:31:51;18.20;99.90
12811;DHT22;6470;47.654;7.896;2023-10-08T17:34:17;17.80;99.90
12811;DHT22;6470;47.654;7.896;2023-10-08T17:36:43;17.30;99.90
12811;DHT22;6470;47.654;7.896;2023-10-08T17:39:10;16.80;99.90
12811;DHT22;6470;47.654;7.896;2023-10-08T17:44:08;18.40;99.90
12811;DHT22;6470;47.654;7.896;2023-10-08T17:46:33;17.90;99.90
12811;DHT22;6470;47.654;7.896;2023-10-08T17:48:59;18.20;99.90
12811;DHT22;6470;47.654;7.896;2023-10-08T17:51:25;17.40;99.90
12811;DHT22;6470;47.654;7.896;2023-10-08T17:53:52;16.90;99.90
12811;DHT22;6470;47.654;7.896;2023-10-08T17:56:17;17.60;99.90
12811;DHT22;6470;47.654;7.896;2023-10-08T17:58:43;17.00;99.90